createdAt,value
2023-04-24T05:50:12.913Z,97933.16
2023-04-24T05:52:40.530Z,97927.66
2023-04-24T05:55:08.791Z,97942.81
2023-04-24T05:57:36.370Z,97948.59
2023-04-24T06:00:06.141Z,97942.41
2023-04-24T06:02:34.057Z,97942.84
2023-04-24T06:05:01.718Z,97946.56
2023-04-24T06:07:29.313Z,97942.66
2023-04-24T06:09:57.790Z,97950.44
2023-04-24T06:12:25.522Z,97938.03
2023-04-24T06:14:52.972Z,97947.91
2023-04-24T06:17:20.452Z,97966.75
2023-04-24T06:19:48.150Z,97957.94
2023-04-24T06:22:16.322Z,97981.34
2023-04-24T06:24:43.825Z,97972.28
2023-04-24T06:27:11.367Z,97972.97
2023-04-24T06:29:38.808Z,97986.81
2023-04-24T06:32:06.383Z,97984.31
2023-04-24T06:34:35.203Z,97997.31
2023-04-24T06:37:03.234Z,97997.59
2023-04-24T06:39:30.734Z,98010.78
2023-04-24T06:41:58.256Z,98017.72
2023-04-24T06:44:26.061Z,98021.00
2023-04-24T06:46:53.775Z,98032.84
2023-04-24T06:49:21.293Z,98022.91
2023-04-24T06:51:48.730Z,98034.47
2023-04-24T06:54:16.343Z,98032.63
2023-04-24T06:56:44.244Z,98029.66
2023-04-24T06:59:11.669Z,98030.03
2023-04-24T07:01:39.277Z,98032.91
2023-04-24T07:04:07.020Z,98035.97
2023-04-24T07:06:34.646Z,98028.78
2023-04-24T07:09:02.875Z,98021.25
2023-04-24T07:11:30.495Z,98024.22
2023-04-24T07:13:58.123Z,98024.09
2023-04-24T07:16:25.673Z,98036.75
2023-04-24T07:18:54.305Z,98032.22
2023-04-24T07:21:21.771Z,98034.25
2023-04-24T07:23:49.255Z,98041.78
2023-04-24T07:26:17.119Z,98041.91
2023-04-24T07:28:44.585Z,98038.66
2023-04-24T07:31:13.340Z,98047.22
2023-04-24T07:33:41.107Z,98043.16
2023-04-24T07:36:08.729Z,98049.78
2023-04-24T07:38:36.243Z,98049.41
2023-04-24T07:41:03.771Z,98046.41
2023-04-24T07:43:31.547Z,98068.13
2023-04-24T07:45:59.132Z,98055.91
2023-04-24T07:48:27.617Z,98065.06
2023-04-24T07:50:55.591Z,98067.88
2023-04-24T07:53:23.098Z,98063.16
2023-04-24T07:55:51.545Z,98071.75
2023-04-24T07:58:19.206Z,98070.91
2023-04-24T08:00:46.629Z,98081.63
2023-04-24T08:03:14.374Z,98066.81
2023-04-24T08:05:44.075Z,98081.91
2023-04-24T08:08:11.831Z,98084.88
2023-04-24T08:10:39.373Z,98075.88
2023-04-24T08:13:07.037Z,98089.25
2023-04-24T08:15:34.676Z,98075.69
2023-04-24T08:18:02.236Z,98082.25
2023-04-24T08:20:30.033Z,98073.97
2023-04-24T08:22:57.687Z,98084.97
2023-04-24T08:25:25.808Z,98082.22
2023-04-24T08:27:53.486Z,98101.56
2023-04-24T08:30:21.511Z,98095.00
2023-04-24T08:32:49.580Z,98091.81
2023-04-24T08:35:17.188Z,98097.31
2023-04-24T08:37:44.993Z,98102.41
2023-04-24T08:40:18.163Z,98104.06
2023-04-24T08:42:46.665Z,98110.06
2023-04-24T08:45:14.849Z,98138.25
2023-04-24T08:47:43.731Z,98103.81
2023-04-24T08:50:13.725Z,98105.06
2023-04-24T08:52:42.847Z,98115.41
2023-04-24T08:55:10.816Z,98128.53
2023-04-24T08:57:41.189Z,98126.59
2023-04-24T09:00:11.880Z,98126.09
2023-04-24T09:02:44.901Z,98126.25
2023-04-24T09:05:14.249Z,98125.50
2023-04-24T09:07:45.791Z,98141.22
2023-04-24T09:10:15.029Z,98115.63
2023-04-24T09:12:45.183Z,98117.63
2023-04-24T09:15:13.357Z,98115.72
2023-04-24T09:17:40.976Z,98119.84
2023-04-24T09:20:09.466Z,98114.75
2023-04-24T09:22:38.532Z,98121.75
2023-04-24T09:25:10.115Z,98146.41
2023-04-24T09:27:42.225Z,98149.06
2023-04-24T09:30:10.673Z,98136.84
2023-04-24T09:32:38.336Z,98142.34
2023-04-24T09:35:16.899Z,98140.72
2023-04-24T09:37:48.084Z,98153.78
2023-04-24T09:40:21.153Z,98130.88
2023-04-24T09:42:58.917Z,98144.41
2023-04-24T09:45:41.113Z,98151.22
2023-04-24T09:48:12.273Z,98147.81
2023-04-24T09:50:39.896Z,98161.19
2023-04-24T09:53:12.309Z,98153.78
2023-04-24T09:55:49.237Z,98149.47
2023-04-24T09:58:16.771Z,98156.41
2023-04-24T10:00:46.907Z,98150.47
2023-04-24T10:03:14.655Z,98152.66
2023-04-24T10:05:44.623Z,98169.81
2023-04-24T10:08:14.529Z,98149.94
2023-04-24T10:10:46.870Z,98153.88
2023-04-24T10:13:16.855Z,98155.00
2023-04-24T10:15:45.569Z,98148.28
2023-04-24T10:18:13.581Z,98159.91
2023-04-24T10:20:42.316Z,98151.72
2023-04-24T10:23:09.862Z,98168.09
2023-04-24T10:25:38.184Z,98170.53
2023-04-24T10:28:08.385Z,98157.16
2023-04-24T10:30:37.501Z,98151.00
2023-04-24T10:33:09.050Z,98160.44
2023-04-24T10:35:44.055Z,98162.63
2023-04-24T10:38:17.843Z,98158.19
2023-04-24T10:40:45.473Z,98173.44
2023-04-24T10:43:19.930Z,98156.13
2023-04-24T10:46:07.303Z,98169.28
2023-04-24T10:48:35.657Z,98166.53
2023-04-24T10:51:03.453Z,98170.72
2023-04-24T10:53:32.334Z,98145.03
2023-04-24T10:56:10.965Z,98158.16
2023-04-24T10:58:53.457Z,98147.72
2023-04-24T11:01:33.208Z,98180.06
2023-04-24T11:04:04.878Z,98157.22
2023-04-24T11:06:37.255Z,98152.09
2023-04-24T11:09:13.859Z,98163.69
2023-04-24T11:11:48.198Z,98173.84
2023-04-24T11:14:19.065Z,98163.56
2023-04-24T11:16:56.326Z,98165.41
2023-04-24T11:19:29.696Z,98168.56
2023-04-24T11:22:18.145Z,98170.28
2023-04-24T11:24:48.380Z,98169.50
2023-04-24T11:27:21.722Z,98174.56
2023-04-24T11:30:11.800Z,98168.16
2023-04-24T11:32:43.636Z,98165.06
2023-04-24T11:35:26.188Z,98162.75
2023-04-24T11:38:12.518Z,98152.97
2023-04-24T11:40:43.992Z,98154.13
2023-04-24T11:43:12.379Z,98169.50
2023-04-24T11:45:48.968Z,98163.94
2023-04-24T11:48:23.887Z,98160.72
2023-04-24T11:50:52.389Z,98184.97
2023-04-24T11:53:23.206Z,98182.28
2023-04-24T11:55:50.784Z,98189.22
2023-04-24T11:58:23.859Z,98195.50
2023-04-24T12:01:02.384Z,98196.59
2023-04-24T12:03:30.071Z,98209.69
2023-04-24T12:06:11.128Z,98213.97
2023-04-24T12:08:39.035Z,98207.69
2023-04-24T12:11:08.615Z,98206.19
2023-04-24T12:13:37.089Z,98199.69
2023-04-24T12:16:06.582Z,98202.44
2023-04-24T12:18:34.278Z,98192.97
2023-04-24T12:21:23.681Z,98201.34
2023-04-24T12:23:52.093Z,98194.94
2023-04-24T12:26:21.480Z,98187.66
2023-04-24T12:28:51.110Z,98220.56
2023-04-24T12:31:18.915Z,98190.00
2023-04-24T12:33:46.382Z,98199.44
2023-04-24T12:36:14.381Z,98188.91
2023-04-24T12:38:47.427Z,98201.78
2023-04-24T12:41:16.267Z,98196.06
2023-04-24T12:43:54.858Z,98184.09
2023-04-24T12:46:22.763Z,98187.78
2023-04-24T12:48:50.816Z,98166.63
2023-04-24T12:51:18.391Z,98167.09
2023-04-24T12:53:46.016Z,98183.19
2023-04-24T12:56:13.475Z,98178.06
2023-04-24T12:58:41.006Z,98178.16
2023-04-24T13:01:09.025Z,98179.38
2023-04-24T13:03:37.353Z,98171.97
2023-04-24T13:06:04.981Z,98166.03
2023-04-24T13:08:32.522Z,98166.06
2023-04-24T13:10:59.945Z,98155.63
2023-04-24T13:13:27.433Z,98154.41
2023-04-24T13:15:54.919Z,98154.16
2023-04-24T13:18:23.102Z,98175.91
2023-04-24T13:20:50.992Z,98175.19
2023-04-24T13:23:18.661Z,98164.84
2023-04-24T13:25:46.635Z,98158.06
2023-04-24T13:28:14.200Z,98150.38
2023-04-24T13:30:41.909Z,98154.69
2023-04-24T13:33:09.546Z,98142.75
2023-04-24T13:35:38.987Z,98146.25
2023-04-24T13:38:07.731Z,98144.19
2023-04-24T13:40:35.331Z,98143.03
2023-04-24T13:43:03.849Z,98130.22
2023-04-24T13:45:31.463Z,98132.00
2023-04-24T13:47:58.981Z,98132.81
2023-04-24T13:50:26.729Z,98130.81
2023-04-24T13:52:54.452Z,98139.78
2023-04-24T13:55:22.000Z,98127.63
2023-04-24T13:57:50.035Z,98131.81
2023-04-24T14:00:19.023Z,98139.88
2023-04-24T14:02:46.832Z,98123.72
2023-04-24T14:05:16.393Z,98131.25
2023-04-24T14:07:44.012Z,98127.63
2023-04-24T14:10:11.904Z,98123.34
2023-04-24T14:12:39.578Z,98123.34
2023-04-24T14:15:09.765Z,98124.59
2023-04-24T14:17:37.325Z,98121.00
2023-04-24T14:20:06.708Z,98125.75
2023-04-24T14:22:34.614Z,98124.59
2023-04-24T14:25:02.082Z,98111.97
2023-04-24T14:27:29.805Z,98124.25
2023-04-24T14:29:58.191Z,98118.38
2023-04-24T14:32:25.678Z,98127.53
2023-04-24T14:34:53.402Z,98116.75
2023-04-24T14:37:21.040Z,98119.94
2023-04-24T14:39:56.222Z,98118.59
2023-04-24T14:42:29.867Z,98106.75
2023-04-24T14:44:57.367Z,98101.31
2023-04-24T14:47:24.968Z,98111.84
2023-04-24T14:49:52.917Z,98108.16
2023-04-24T14:52:21.163Z,98104.00
2023-04-24T14:54:48.606Z,98106.81
2023-04-24T14:57:16.657Z,98100.06
2023-04-24T14:59:44.150Z,98107.44
2023-04-24T15:02:16.693Z,98108.63
2023-04-24T15:04:45.569Z,98110.97
2023-04-24T15:07:13.129Z,98107.13
2023-04-24T15:09:40.930Z,98103.91
2023-04-24T15:12:08.876Z,98107.47
2023-04-24T15:14:36.743Z,98105.22
2023-04-24T15:17:04.432Z,98104.44
2023-04-24T15:19:33.651Z,98108.66
2023-04-24T15:22:01.189Z,98112.63
2023-04-24T15:24:28.727Z,98107.16
2023-04-24T15:26:58.841Z,98108.66
2023-04-24T15:29:28.346Z,98105.47
2023-04-24T15:31:55.787Z,98107.47
2023-04-24T15:34:23.284Z,98106.88
2023-04-24T15:36:50.846Z,98109.66
2023-04-24T15:39:18.641Z,98112.16
2023-04-24T15:41:46.105Z,98107.47
2023-04-24T15:44:13.593Z,98108.03
2023-04-24T15:46:41.095Z,98103.16
2023-04-24T15:49:08.600Z,98100.84
2023-04-24T15:51:36.079Z,98100.91
2023-04-24T15:54:03.873Z,98090.25
2023-04-24T15:56:31.729Z,98095.78
2023-04-24T15:58:59.300Z,98094.88
2023-04-24T16:01:26.964Z,98098.72
2023-04-24T16:03:54.540Z,98088.03
2023-04-24T16:06:22.243Z,98095.91
2023-04-24T16:08:50.568Z,98098.31
2023-04-24T16:11:18.229Z,98099.41
2023-04-24T16:13:45.776Z,98101.88
2023-04-24T16:16:13.416Z,98102.06
2023-04-24T16:18:41.140Z,98115.69
2023-04-24T16:21:09.510Z,98103.03
2023-04-24T16:23:37.053Z,98099.88
2023-04-24T16:26:04.540Z,98098.31
2023-04-24T16:28:32.166Z,98108.63
2023-04-24T16:30:59.940Z,98096.34
2023-04-24T16:33:27.500Z,98104.31
2023-04-24T16:35:55.806Z,98104.69
2023-04-24T16:38:25.189Z,98103.50
2023-04-24T16:40:52.760Z,98111.78
2023-04-24T16:43:20.877Z,98106.25
2023-04-24T16:45:48.345Z,98105.44
2023-04-24T16:48:15.910Z,98100.22
2023-04-24T16:50:43.443Z,98102.28
2023-04-24T16:53:10.955Z,98104.25
2023-04-24T16:55:39.546Z,98109.41
2023-04-24T16:58:07.351Z,98102.28
2023-04-24T17:00:35.702Z,98105.47
2023-04-24T17:03:03.482Z,98106.97
2023-04-24T17:05:31.326Z,98104.91
2023-04-24T17:07:59.189Z,98105.00
2023-04-24T17:10:26.661Z,98108.97
2023-04-24T17:12:54.119Z,98097.09
2023-04-24T17:15:21.611Z,98105.41
2023-04-24T17:17:50.619Z,98099.06
2023-04-24T17:20:22.522Z,98093.53
2023-04-24T17:22:51.565Z,98085.88
2023-04-24T17:25:21.513Z,98085.88
2023-04-24T17:27:49.144Z,98094.31
2023-04-24T17:30:17.986Z,98099.84
2023-04-24T17:32:46.027Z,98098.31
2023-04-24T17:35:13.578Z,98095.91
2023-04-24T17:37:41.470Z,98105.31
2023-04-24T17:40:10.143Z,98102.66
2023-04-24T17:42:41.517Z,98102.59
2023-04-24T17:45:10.705Z,98094.69
2023-04-24T17:47:38.281Z,98087.47
2023-04-24T17:50:06.759Z,98095.88
2023-04-24T17:52:35.125Z,98103.41
2023-04-24T17:55:02.659Z,98103.84
2023-04-24T17:57:30.208Z,98097.31
2023-04-24T17:59:57.617Z,98093.38
2023-04-24T18:02:25.205Z,98098.59
2023-04-24T18:04:55.163Z,98107.53
2023-04-24T18:07:22.893Z,98098.56
2023-04-24T18:09:51.126Z,98094.91
2023-04-24T18:12:18.687Z,98099.44
2023-04-24T18:14:46.259Z,98090.16
2023-04-24T18:17:13.716Z,98088.78
2023-04-24T18:19:41.175Z,98094.03
2023-04-24T18:22:08.625Z,98098.81
2023-04-24T18:24:36.105Z,98104.06
2023-04-24T18:27:04.215Z,98109.50
2023-04-24T18:29:31.729Z,98110.63
2023-04-24T18:31:59.362Z,98109.03
2023-04-24T18:34:26.939Z,98107.81
2023-04-24T18:36:54.726Z,98109.91
2023-04-24T18:39:23.176Z,98102.19
2023-04-24T18:41:50.851Z,98099.31
2023-04-24T18:44:19.996Z,98105.78
2023-04-24T18:46:47.540Z,98106.63
2023-04-24T18:49:15.080Z,98112.19
2023-04-24T18:51:52.982Z,98130.00
2023-04-24T18:54:21.005Z,98135.53
2023-04-24T18:56:48.525Z,98138.41
2023-04-24T18:59:15.990Z,98133.16
2023-04-24T19:01:43.790Z,98141.66
2023-04-24T19:04:11.459Z,98153.16
2023-04-24T19:06:38.980Z,98147.16
2023-04-24T19:09:06.963Z,98149.03
2023-04-24T19:11:34.703Z,98153.13
2023-04-24T19:14:04.293Z,98145.81
2023-04-24T19:16:31.966Z,98147.75
2023-04-24T19:18:59.527Z,98146.47
2023-04-24T19:21:27.975Z,98159.22
2023-04-24T19:23:57.092Z,98163.53
2023-04-24T19:26:25.911Z,98146.13
2023-04-24T19:28:53.814Z,98160.66
2023-04-24T19:31:21.590Z,98162.78
2023-04-24T19:33:49.127Z,98165.06
2023-04-24T19:36:19.987Z,98161.66
2023-04-24T19:38:48.352Z,98165.91
2023-04-24T19:41:16.272Z,98170.63
2023-04-24T19:43:43.827Z,98162.69
2023-04-24T19:46:11.715Z,98169.03
2023-04-24T19:48:39.281Z,98159.19
2023-04-24T19:51:06.766Z,98165.16
2023-04-24T19:53:49.687Z,98160.88
2023-04-24T19:56:17.316Z,98155.69
2023-04-24T19:58:44.846Z,98154.16
2023-04-24T20:01:12.437Z,98139.50
2023-04-24T20:03:40.109Z,98151.00
2023-04-24T20:06:07.698Z,98161.19
2023-04-24T20:08:39.022Z,98155.00
2023-04-24T20:11:06.909Z,98159.69
2023-04-24T20:13:34.544Z,98156.56
2023-04-24T20:16:02.031Z,98153.38
2023-04-24T20:18:29.603Z,98155.81
2023-04-24T20:20:59.972Z,98161.25
2023-04-24T20:23:28.090Z,98157.31
2023-04-24T20:25:58.564Z,98151.38
2023-04-24T20:28:27.898Z,98155.28
2023-04-24T20:30:55.972Z,98160.53
2023-04-24T20:33:23.876Z,98152.56
2023-04-24T20:35:52.547Z,98154.09
2023-04-24T20:38:20.062Z,98154.44
2023-04-24T20:40:57.248Z,98153.66
2023-04-24T20:43:29.059Z,98150.06
2023-04-24T20:46:00.326Z,98145.38
2023-04-24T20:48:27.930Z,98148.44
2023-04-24T20:50:56.096Z,98154.44
2023-04-24T20:53:23.947Z,98151.09
2023-04-24T20:55:52.173Z,98146.88
2023-04-24T20:58:21.149Z,98154.53
2023-04-24T21:00:49.275Z,98150.75
2023-04-24T21:03:17.121Z,98152.38
2023-04-24T21:05:44.649Z,98146.84
2023-04-24T21:08:12.672Z,98149.69
2023-04-24T21:10:40.235Z,98138.97
2023-04-24T21:13:07.947Z,98134.09
2023-04-24T21:15:35.804Z,98136.06
2023-04-24T21:18:04.280Z,98136.13
2023-04-24T21:20:31.938Z,98137.25
2023-04-24T21:22:59.417Z,98138.47
2023-04-24T21:25:27.456Z,98136.13
2023-04-24T21:27:55.802Z,98135.75
2023-04-24T21:30:23.439Z,98130.72
2023-04-24T21:32:52.262Z,98133.78
2023-04-24T21:35:20.342Z,98130.59
2023-04-24T21:37:47.888Z,98128.72
2023-04-24T21:40:16.136Z,98140.13
2023-04-24T21:42:43.915Z,98135.50
2023-04-24T21:45:12.127Z,98136.81
2023-04-24T21:47:39.655Z,98139.69
2023-04-24T21:50:08.614Z,98131.03
2023-04-24T21:52:36.136Z,98125.75
2023-04-24T21:55:03.885Z,98122.91
2023-04-24T21:57:31.481Z,98130.88
2023-04-24T21:59:59.292Z,98119.56
2023-04-24T22:02:26.844Z,98119.91
2023-04-24T22:04:56.654Z,98119.47
2023-04-24T22:07:24.392Z,98125.03
2023-04-24T22:09:51.877Z,98117.03
2023-04-24T22:12:20.501Z,98119.06
2023-04-24T22:14:47.996Z,98115.09
2023-04-24T22:17:17.371Z,98102.75
2023-04-24T22:19:44.954Z,98111.09
2023-04-24T22:22:12.412Z,98102.03
2023-04-24T22:24:40.534Z,98097.66
2023-04-24T22:27:08.039Z,98097.66
2023-04-24T22:29:35.549Z,98100.84
2023-04-24T22:32:03.082Z,98093.53
2023-04-24T22:34:30.542Z,98092.03
2023-04-24T22:36:58.013Z,98081.84
2023-04-24T22:39:25.725Z,98074.75
2023-04-24T22:41:53.657Z,98078.19
2023-04-24T22:44:21.802Z,98083.00
2023-04-24T22:46:49.308Z,98084.31
2023-04-24T22:49:16.801Z,98085.03
2023-04-24T22:51:44.726Z,98093.34
2023-04-24T22:54:12.143Z,98103.94
2023-04-24T22:56:40.111Z,98092.88
2023-04-24T22:59:07.699Z,98093.66
2023-04-24T23:01:35.116Z,98087.50
2023-04-24T23:04:02.740Z,98087.22
2023-04-24T23:06:31.013Z,98084.09
2023-04-24T23:08:58.428Z,98079.44
2023-04-24T23:11:26.018Z,98079.69
2023-04-24T23:13:53.554Z,98072.25
2023-04-24T23:16:21.007Z,98083.06
2023-04-24T23:18:48.728Z,98083.06
2023-04-24T23:21:16.284Z,98076.97
2023-04-24T23:23:43.841Z,98071.44
2023-04-24T23:26:11.336Z,98069.88
2023-04-24T23:28:40.432Z,98066.41
2023-04-24T23:31:08.024Z,98068.66
2023-04-24T23:33:35.483Z,98060.25
2023-04-24T23:36:03.580Z,98063.41
2023-04-24T23:38:39.915Z,98060.53
2023-04-24T23:41:16.786Z,98063.00
2023-04-24T23:43:44.247Z,98067.13
2023-04-24T23:46:11.973Z,98057.03
